sensor_id;sensor_type;location;lat;lon;timestamp;P1;durP1;ratioP1;P2;durP2;ratioP2
9392;SDS011;4736;52.508;13.422;2023-02-18T00:02:52;14.93;;;5.03;;
9392;SDS011;4736;52.508;13.422;2023-02-18T00:05:56;7.40;;;4.80;;
9392;SDS011;4736;52.508;13.422;2023-02-18T00:08:59;11.23;;;5.03;;
9392;SDS011;4736;52.508;13.422;2023-02-18T00:12:03;12.07;;;5.00;;
9392;SDS011;4736;52.508;13.422;2023-02-18T00:15:08;8.57;;;4.30;;
9392;SDS011;4736;52.508;13.422;2023-02-18T00:18:11;11.23;;;4.23;;
9392;SDS011;4736;52.508;13.422;2023-02-18T00:21:14;13.00;;;4.93;;
9392;SDS011;4736;52.508;13.422;2023-02-18T00:24:18;14.40;;;4.90;;
9392;SDS011;4736;52.508;13.422;2023-02-18T00:27:22;15.37;;;5.33;;
9392;SDS011;4736;52.508;13.422;2023-02-18T00:30:27;9.07;;;4.40;;
9392;SDS011;4736;52.508;13.422;2023-02-18T00:33:30;11.90;;;5.40;;
9392;SDS011;4736;52.508;13.422;2023-02-18T00:36:33;7.97;;;4.60;;
9392;SDS011;4736;52.508;13.422;2023-02-18T00:39:37;14.47;;;5.30;;
9392;SDS011;4736;52.508;13.422;2023-02-18T00:42:40;14.63;;;4.60;;
9392;SDS011;4736;52.508;13.422;2023-02-18T00:45:45;11.57;;;4.97;;
9392;SDS011;4736;52.508;13.422;2023-02-18T00:48:48;14.60;;;5.80;;
9392;SDS011;4736;52.508;13.422;2023-02-18T00:51:51;10.80;;;4.80;;
9392;SDS011;4736;52.508;13.422;2023-02-18T00:54:54;12.93;;;4.97;;
9392;SDS011;4736;52.508;13.422;2023-02-18T00:57:57;15.37;;;4.53;;
9392;SDS011;4736;52.508;13.422;2023-02-18T01:01:02;12.77;;;4.77;;
9392;SDS011;4736;52.508;13.422;2023-02-18T01:04:07;18.23;;;6.10;;
9392;SDS011;4736;52.508;13.422;2023-02-18T01:07:11;11.83;;;4.43;;
9392;SDS011;4736;52.508;13.422;2023-02-18T01:10:14;10.10;;;4.57;;
9392;SDS011;4736;52.508;13.422;2023-02-18T01:13:19;15.43;;;4.80;;
9392;SDS011;4736;52.508;13.422;2023-02-18T01:16:25;7.47;;;4.43;;
9392;SDS011;4736;52.508;13.422;2023-02-18T01:19:28;12.10;;;4.90;;
9392;SDS011;4736;52.508;13.422;2023-02-18T01:22:31;12.80;;;4.80;;
9392;SDS011;4736;52.508;13.422;2023-02-18T01:25:34;8.03;;;4.53;;
9392;SDS011;4736;52.508;13.422;2023-02-18T01:28:38;12.47;;;5.30;;
9392;SDS011;4736;52.508;13.422;2023-02-18T01:31:43;12.07;;;5.83;;
9392;SDS011;4736;52.508;13.422;2023-02-18T01:34:46;12.03;;;5.10;;
9392;SDS011;4736;52.508;13.422;2023-02-18T01:37:50;9.80;;;5.10;;
9392;SDS011;4736;52.508;13.422;2023-02-18T01:40:53;10.03;;;4.77;;
9392;SDS011;4736;52.508;13.422;2023-02-18T01:44:09;12.50;;;4.77;;
9392;SDS011;4736;52.508;13.422;2023-02-18T01:47:15;9.33;;;4.87;;
9392;SDS011;4736;52.508;13.422;2023-02-18T01:50:19;9.57;;;4.57;;
9392;SDS011;4736;52.508;13.422;2023-02-18T01:53:24;7.77;;;4.30;;
9392;SDS011;4736;52.508;13.422;2023-02-18T01:56:32;11.77;;;4.60;;
9392;SDS011;4736;52.508;13.422;2023-02-18T01:59:38;11.23;;;4.33;;
9392;SDS011;4736;52.508;13.422;2023-02-18T02:02:46;12.53;;;4.70;;
9392;SDS011;4736;52.508;13.422;2023-02-18T02:05:50;13.77;;;4.93;;
9392;SDS011;4736;52.508;13.422;2023-02-18T02:08:55;13.10;;;4.87;;
9392;SDS011;4736;52.508;13.422;2023-02-18T02:12:04;11.80;;;4.80;;
9392;SDS011;4736;52.508;13.422;2023-02-18T02:15:24;12.70;;;5.10;;
9392;SDS011;4736;52.508;13.422;2023-02-18T02:18:46;10.43;;;4.77;;
9392;SDS011;4736;52.508;13.422;2023-02-18T02:22:04;9.77;;;4.80;;
9392;SDS011;4736;52.508;13.422;2023-02-18T02:25:33;9.90;;;4.40;;
9392;SDS011;4736;52.508;13.422;2023-02-18T02:36:06;7.77;;;4.60;;
9392;SDS011;4736;52.508;13.422;2023-02-18T02:39:17;7.67;;;4.17;;
9392;SDS011;4736;52.508;13.422;2023-02-18T02:42:28;9.70;;;4.93;;
9392;SDS011;4736;52.508;13.422;2023-02-18T02:45:43;8.30;;;4.47;;
9392;SDS011;4736;52.508;13.422;2023-02-18T02:48:54;9.90;;;4.77;;
9392;SDS011;4736;52.508;13.422;2023-02-18T02:52:05;10.20;;;4.80;;
9392;SDS011;4736;52.508;13.422;2023-02-18T02:55:14;9.30;;;4.23;;
9392;SDS011;4736;52.508;13.422;2023-02-18T02:58:18;8.43;;;4.50;;
9392;SDS011;4736;52.508;13.422;2023-02-18T03:01:24;11.70;;;4.60;;
9392;SDS011;4736;52.508;13.422;2023-02-18T03:11:40;15.17;;;4.30;;
9392;SDS011;4736;52.508;13.422;2023-02-18T03:14:51;6.13;;;3.77;;
9392;SDS011;4736;52.508;13.422;2023-02-18T03:18:00;13.33;;;4.37;;
9392;SDS011;4736;52.508;13.422;2023-02-18T03:21:10;10.73;;;4.80;;
9392;SDS011;4736;52.508;13.422;2023-02-18T03:24:19;13.67;;;4.70;;
9392;SDS011;4736;52.508;13.422;2023-02-18T03:27:26;9.37;;;4.90;;
9392;SDS011;4736;52.508;13.422;2023-02-18T03:30:34;10.83;;;4.60;;
9392;SDS011;4736;52.508;13.422;2023-02-18T03:33:42;9.87;;;4.13;;
9392;SDS011;4736;52.508;13.422;2023-02-18T03:36:47;13.17;;;5.10;;
9392;SDS011;4736;52.508;13.422;2023-02-18T03:39:54;8.57;;;4.20;;
9392;SDS011;4736;52.508;13.422;2023-02-18T03:43:01;7.10;;;4.10;;
9392;SDS011;4736;52.508;13.422;2023-02-18T03:46:05;7.87;;;4.60;;
9392;SDS011;4736;52.508;13.422;2023-02-18T03:49:09;5.50;;;4.00;;
9392;SDS011;4736;52.508;13.422;2023-02-18T03:52:13;7.90;;;4.10;;
9392;SDS011;4736;52.508;13.422;2023-02-18T03:55:18;7.23;;;4.00;;
9392;SDS011;4736;52.508;13.422;2023-02-18T03:58:21;8.43;;;4.00;;
9392;SDS011;4736;52.508;13.422;2023-02-18T04:01:24;6.80;;;4.40;;
9392;SDS011;4736;52.508;13.422;2023-02-18T04:04:27;9.73;;;4.33;;
9392;SDS011;4736;52.508;13.422;2023-02-18T04:07:31;8.23;;;3.70;;
9392;SDS011;4736;52.508;13.422;2023-02-18T04:10:35;6.33;;;3.57;;
9392;SDS011;4736;52.508;13.422;2023-02-18T04:13:39;5.53;;;3.60;;
9392;SDS011;4736;52.508;13.422;2023-02-18T04:16:42;8.77;;;4.70;;
9392;SDS011;4736;52.508;13.422;2023-02-18T04:19:45;6.17;;;3.70;;
9392;SDS011;4736;52.508;13.422;2023-02-18T04:22:48;11.13;;;4.27;;
9392;SDS011;4736;52.508;13.422;2023-02-18T04:25:53;4.23;;;3.57;;
9392;SDS011;4736;52.508;13.422;2023-02-18T04:28:56;9.13;;;4.40;;
9392;SDS011;4736;52.508;13.422;2023-02-18T04:31:59;6.27;;;3.87;;
9392;SDS011;4736;52.508;13.422;2023-02-18T04:35:02;9.47;;;3.97;;
9392;SDS011;4736;52.508;13.422;2023-02-18T04:38:06;7.67;;;4.47;;
9392;SDS011;4736;52.508;13.422;2023-02-18T04:41:14;6.50;;;4.50;;
9392;SDS011;4736;52.508;13.422;2023-02-18T04:44:17;7.40;;;4.10;;
9392;SDS011;4736;52.508;13.422;2023-02-18T04:47:20;6.93;;;3.93;;
9392;SDS011;4736;52.508;13.422;2023-02-18T04:50:23;8.03;;;4.17;;
9392;SDS011;4736;52.508;13.422;2023-02-18T04:53:26;8.23;;;3.90;;
9392;SDS011;4736;52.508;13.422;2023-02-18T04:56:31;9.20;;;3.57;;
9392;SDS011;4736;52.508;13.422;2023-02-18T04:59:34;11.97;;;4.27;;
9392;SDS011;4736;52.508;13.422;2023-02-18T05:02:37;5.77;;;3.67;;
9392;SDS011;4736;52.508;13.422;2023-02-18T05:05:40;4.67;;;3.77;;
9392;SDS011;4736;52.508;13.422;2023-02-18T05:08:43;5.67;;;4.30;;
9392;SDS011;4736;52.508;13.422;2023-02-18T05:11:48;5.57;;;4.27;;
9392;SDS011;4736;52.508;13.422;2023-02-18T05:14:51;4.50;;;3.70;;
9392;SDS011;4736;52.508;13.422;2023-02-18T05:17:55;5.83;;;3.90;;
9392;SDS011;4736;52.508;13.422;2023-02-18T05:20:58;5.27;;;3.70;;
9392;SDS011;4736;52.508;13.422;2023-02-18T05:24:01;7.37;;;4.03;;
9392;SDS011;4736;52.508;13.422;2023-02-18T05:27:05;5.33;;;3.60;;
9392;SDS011;4736;52.508;13.422;2023-02-18T05:30:09;7.43;;;3.97;;
9392;SDS011;4736;52.508;13.422;2023-02-18T05:33:13;5.90;;;3.90;;
9392;SDS011;4736;52.508;13.422;2023-02-18T05:36:16;4.17;;;3.53;;
9392;SDS011;4736;52.508;13.422;2023-02-18T05:39:20;6.43;;;4.00;;
9392;SDS011;4736;52.508;13.422;2023-02-18T05:42:24;6.10;;;3.83;;
9392;SDS011;4736;52.508;13.422;2023-02-18T05:45:27;10.50;;;3.97;;
9392;SDS011;4736;52.508;13.422;2023-02-18T05:48:33;7.97;;;4.20;;
9392;SDS011;4736;52.508;13.422;2023-02-18T05:51:36;5.73;;;3.60;;
9392;SDS011;4736;52.508;13.422;2023-02-18T05:54:40;8.37;;;3.67;;
9392;SDS011;4736;52.508;13.422;2023-02-18T05:57:44;4.03;;;3.70;;
9392;SDS011;4736;52.508;13.422;2023-02-18T06:00:48;4.07;;;3.73;;
9392;SDS011;4736;52.508;13.422;2023-02-18T06:03:51;8.50;;;3.80;;
9392;SDS011;4736;52.508;13.422;2023-02-18T06:06:54;4.67;;;3.50;;
9392;SDS011;4736;52.508;13.422;2023-02-18T06:09:57;4.73;;;3.37;;
9392;SDS011;4736;52.508;13.422;2023-02-18T06:13:01;6.23;;;3.70;;
9392;SDS011;4736;52.508;13.422;2023-02-18T06:16:04;5.43;;;3.70;;
9392;SDS011;4736;52.508;13.422;2023-02-18T06:19:08;5.20;;;3.37;;
9392;SDS011;4736;52.508;13.422;2023-02-18T06:22:11;4.67;;;3.73;;
9392;SDS011;4736;52.508;13.422;2023-02-18T06:25:14;5.07;;;3.87;;
9392;SDS011;4736;52.508;13.422;2023-02-18T06:28:19;6.20;;;3.57;;
9392;SDS011;4736;52.508;13.422;2023-02-18T06:31:22;4.80;;;3.37;;
9392;SDS011;4736;52.508;13.422;2023-02-18T06:34:25;3.63;;;3.43;;
9392;SDS011;4736;52.508;13.422;2023-02-18T06:37:29;4.80;;;3.63;;
9392;SDS011;4736;52.508;13.422;2023-02-18T06:40:32;4.30;;;3.90;;
9392;SDS011;4736;52.508;13.422;2023-02-18T06:43:39;4.03;;;3.70;;
9392;SDS011;4736;52.508;13.422;2023-02-18T06:46:45;4.50;;;3.30;;
9392;SDS011;4736;52.508;13.422;2023-02-18T06:49:50;6.90;;;3.73;;
9392;SDS011;4736;52.508;13.422;2023-02-18T06:52:54;5.97;;;3.60;;
9392;SDS011;4736;52.508;13.422;2023-02-18T06:55:57;5.70;;;3.87;;
9392;SDS011;4736;52.508;13.422;2023-02-18T06:59:01;4.20;;;3.70;;
9392;SDS011;4736;52.508;13.422;2023-02-18T07:02:04;5.30;;;4.40;;
9392;SDS011;4736;52.508;13.422;2023-02-18T07:05:09;3.77;;;3.40;;
9392;SDS011;4736;52.508;13.422;2023-02-18T07:08:12;6.07;;;3.70;;
9392;SDS011;4736;52.508;13.422;2023-02-18T07:11:15;4.63;;;3.80;;
9392;SDS011;4736;52.508;13.422;2023-02-18T07:14:19;4.60;;;3.40;;
9392;SDS011;4736;52.508;13.422;2023-02-18T07:17:24;5.27;;;3.60;;
9392;SDS011;4736;52.508;13.422;2023-02-18T07:20:27;3.60;;;3.40;;
9392;SDS011;4736;52.508;13.422;2023-02-18T07:23:31;3.33;;;3.13;;
9392;SDS011;4736;52.508;13.422;2023-02-18T07:26:34;5.10;;;3.50;;
9392;SDS011;4736;52.508;13.422;2023-02-18T07:29:39;3.47;;;3.30;;
9392;SDS011;4736;52.508;13.422;2023-02-18T07:32:42;4.57;;;3.27;;
9392;SDS011;4736;52.508;13.422;2023-02-18T07:35:45;4.13;;;3.33;;
9392;SDS011;4736;52.508;13.422;2023-02-18T07:38:48;4.03;;;3.73;;
9392;SDS011;4736;52.508;13.422;2023-02-18T07:41:51;3.50;;;3.30;;
9392;SDS011;4736;52.508;13.422;2023-02-18T07:44:56;3.83;;;3.53;;
9392;SDS011;4736;52.508;13.422;2023-02-18T07:48:00;3.60;;;3.40;;
9392;SDS011;4736;52.508;13.422;2023-02-18T07:51:04;5.23;;;3.23;;
9392;SDS011;4736;52.508;13.422;2023-02-18T07:54:08;7.47;;;3.50;;
9392;SDS011;4736;52.508;13.422;2023-02-18T07:57:11;4.93;;;3.47;;
9392;SDS011;4736;52.508;13.422;2023-02-18T08:03:22;5.27;;;3.50;;
9392;SDS011;4736;52.508;13.422;2023-02-18T08:06:28;3.23;;;3.03;;
9392;SDS011;4736;52.508;13.422;2023-02-18T08:09:34;3.80;;;3.50;;
9392;SDS011;4736;52.508;13.422;2023-02-18T08:12:37;3.60;;;3.30;;
9392;SDS011;4736;52.508;13.422;2023-02-18T08:15:42;3.17;;;2.90;;
9392;SDS011;4736;52.508;13.422;2023-02-18T08:18:46;3.83;;;3.33;;
9392;SDS011;4736;52.508;13.422;2023-02-18T08:21:50;3.20;;;3.00;;
9392;SDS011;4736;52.508;13.422;2023-02-18T08:24:53;6.27;;;3.30;;
9392;SDS011;4736;52.508;13.422;2023-02-18T08:27:57;3.73;;;3.50;;
9392;SDS011;4736;52.508;13.422;2023-02-18T08:31:03;6.23;;;3.77;;
9392;SDS011;4736;52.508;13.422;2023-02-18T08:34:06;4.80;;;3.10;;
9392;SDS011;4736;52.508;13.422;2023-02-18T08:37:10;3.83;;;3.20;;
9392;SDS011;4736;52.508;13.422;2023-02-18T08:40:13;3.47;;;3.17;;
9392;SDS011;4736;52.508;13.422;2023-02-18T08:43:16;5.47;;;3.60;;
9392;SDS011;4736;52.508;13.422;2023-02-18T08:46:21;3.67;;;3.17;;
9392;SDS011;4736;52.508;13.422;2023-02-18T08:49:37;3.53;;;2.90;;
9392;SDS011;4736;52.508;13.422;2023-02-18T08:52:40;6.40;;;3.30;;
9392;SDS011;4736;52.508;13.422;2023-02-18T08:55:43;3.37;;;3.17;;
9392;SDS011;4736;52.508;13.422;2023-02-18T08:58:46;3.93;;;3.40;;
9392;SDS011;4736;52.508;13.422;2023-02-18T09:01:51;4.70;;;3.40;;
9392;SDS011;4736;52.508;13.422;2023-02-18T09:04:54;4.27;;;3.70;;
9392;SDS011;4736;52.508;13.422;2023-02-18T09:07:57;4.30;;;3.53;;
9392;SDS011;4736;52.508;13.422;2023-02-18T09:11:01;5.50;;;3.37;;
9392;SDS011;4736;52.508;13.422;2023-02-18T09:14:05;4.63;;;3.43;;
9392;SDS011;4736;52.508;13.422;2023-02-18T09:17:10;3.77;;;3.40;;
9392;SDS011;4736;52.508;13.422;2023-02-18T09:20:13;6.20;;;3.67;;
9392;SDS011;4736;52.508;13.422;2023-02-18T09:23:16;6.87;;;4.00;;
9392;SDS011;4736;52.508;13.422;2023-02-18T09:26:19;5.23;;;4.07;;
9392;SDS011;4736;52.508;13.422;2023-02-18T09:29:23;4.40;;;3.60;;
9392;SDS011;4736;52.508;13.422;2023-02-18T09:32:28;8.57;;;4.63;;
9392;SDS011;4736;52.508;13.422;2023-02-18T09:35:37;6.27;;;4.27;;
9392;SDS011;4736;52.508;13.422;2023-02-18T09:38:42;4.80;;;4.23;;
9392;SDS011;4736;52.508;13.422;2023-02-18T09:41:46;6.00;;;4.53;;
9392;SDS011;4736;52.508;13.422;2023-02-18T09:44:51;10.07;;;4.33;;
9392;SDS011;4736;52.508;13.422;2023-02-18T09:47:58;10.00;;;4.80;;
9392;SDS011;4736;52.508;13.422;2023-02-18T09:51:03;5.00;;;4.63;;
9392;SDS011;4736;52.508;13.422;2023-02-18T09:54:08;8.00;;;4.17;;
9392;SDS011;4736;52.508;13.422;2023-02-18T09:57:17;8.73;;;5.70;;
9392;SDS011;4736;52.508;13.422;2023-02-18T10:00:28;8.53;;;5.37;;
9392;SDS011;4736;52.508;13.422;2023-02-18T10:03:36;5.53;;;5.03;;
9392;SDS011;4736;52.508;13.422;2023-02-18T10:06:40;5.30;;;4.83;;
9392;SDS011;4736;52.508;13.422;2023-02-18T10:09:45;10.40;;;6.13;;
9392;SDS011;4736;52.508;13.422;2023-02-18T10:12:50;6.73;;;4.87;;
9392;SDS011;4736;52.508;13.422;2023-02-18T10:15:54;6.73;;;4.63;;
9392;SDS011;4736;52.508;13.422;2023-02-18T10:19:00;7.87;;;5.73;;
9392;SDS011;4736;52.508;13.422;2023-02-18T10:22:20;11.40;;;5.30;;
9392;SDS011;4736;52.508;13.422;2023-02-18T10:25:27;8.77;;;5.47;;
9392;SDS011;4736;52.508;13.422;2023-02-18T10:28:32;10.10;;;5.77;;
9392;SDS011;4736;52.508;13.422;2023-02-18T10:31:38;11.10;;;4.90;;
9392;SDS011;4736;52.508;13.422;2023-02-18T10:34:47;14.83;;;5.60;;
9392;SDS011;4736;52.508;13.422;2023-02-18T10:37:56;7.57;;;5.40;;
9392;SDS011;4736;52.508;13.422;2023-02-18T10:41:10;11.70;;;5.80;;
9392;SDS011;4736;52.508;13.422;2023-02-18T10:44:23;5.63;;;5.10;;
9392;SDS011;4736;52.508;13.422;2023-02-18T10:47:35;8.50;;;5.80;;
9392;SDS011;4736;52.508;13.422;2023-02-18T10:50:43;8.47;;;5.37;;
9392;SDS011;4736;52.508;13.422;2023-02-18T10:53:48;8.97;;;5.57;;
9392;SDS011;4736;52.508;13.422;2023-02-18T10:56:57;4.70;;;4.40;;
9392;SDS011;4736;52.508;13.422;2023-02-18T11:00:02;6.07;;;4.90;;
9392;SDS011;4736;52.508;13.422;2023-02-18T11:03:20;5.87;;;4.67;;
9392;SDS011;4736;52.508;13.422;2023-02-18T11:06:26;5.97;;;4.70;;
9392;SDS011;4736;52.508;13.422;2023-02-18T11:09:40;9.37;;;5.07;;
9392;SDS011;4736;52.508;13.422;2023-02-18T11:12:48;8.07;;;5.27;;
9392;SDS011;4736;52.508;13.422;2023-02-18T11:15:57;7.17;;;5.23;;
9392;SDS011;4736;52.508;13.422;2023-02-18T11:19:01;8.70;;;5.10;;
9392;SDS011;4736;52.508;13.422;2023-02-18T11:22:13;9.30;;;4.73;;
9392;SDS011;4736;52.508;13.422;2023-02-18T11:25:20;5.77;;;4.47;;
9392;SDS011;4736;52.508;13.422;2023-02-18T11:28:26;5.23;;;4.80;;
9392;SDS011;4736;52.508;13.422;2023-02-18T11:31:38;5.07;;;4.87;;
9392;SDS011;4736;52.508;13.422;2023-02-18T11:34:43;4.50;;;4.20;;
9392;SDS011;4736;52.508;13.422;2023-02-18T11:37:48;4.43;;;4.13;;
9392;SDS011;4736;52.508;13.422;2023-02-18T11:40:53;5.47;;;5.00;;
9392;SDS011;4736;52.508;13.422;2023-02-18T11:43:58;4.60;;;4.40;;
9392;SDS011;4736;52.508;13.422;2023-02-18T11:47:04;4.47;;;4.13;;
9392;SDS011;4736;52.508;13.422;2023-02-18T11:50:15;4.27;;;4.07;;
9392;SDS011;4736;52.508;13.422;2023-02-18T11:53:27;5.70;;;5.30;;
9392;SDS011;4736;52.508;13.422;2023-02-18T11:56:33;6.53;;;6.03;;
9392;SDS011;4736;52.508;13.422;2023-02-18T11:59:38;6.57;;;5.30;;
9392;SDS011;4736;52.508;13.422;2023-02-18T12:02:43;5.27;;;5.07;;
9392;SDS011;4736;52.508;13.422;2023-02-18T12:05:46;5.57;;;5.20;;
9392;SDS011;4736;52.508;13.422;2023-02-18T12:08:53;4.73;;;4.60;;
9392;SDS011;4736;52.508;13.422;2023-02-18T12:12:00;4.77;;;4.57;;
9392;SDS011;4736;52.508;13.422;2023-02-18T12:15:07;4.80;;;4.60;;
9392;SDS011;4736;52.508;13.422;2023-02-18T12:18:20;4.53;;;4.37;;
9392;SDS011;4736;52.508;13.422;2023-02-18T12:21:46;4.67;;;4.37;;
9392;SDS011;4736;52.508;13.422;2023-02-18T12:25:03;4.80;;;4.70;;
9392;SDS011;4736;52.508;13.422;2023-02-18T12:28:26;4.80;;;4.60;;
9392;SDS011;4736;52.508;13.422;2023-02-18T12:31:42;5.03;;;4.77;;
9392;SDS011;4736;52.508;13.422;2023-02-18T12:34:53;5.70;;;5.40;;
9392;SDS011;4736;52.508;13.422;2023-02-18T12:45:12;6.30;;;5.93;;
9392;SDS011;4736;52.508;13.422;2023-02-18T12:48:37;6.33;;;5.93;;
9392;SDS011;4736;52.508;13.422;2023-02-18T12:51:55;6.17;;;5.87;;
9392;SDS011;4736;52.508;13.422;2023-02-18T12:55:18;6.57;;;6.17;;
9392;SDS011;4736;52.508;13.422;2023-02-18T12:58:33;5.73;;;5.33;;
9392;SDS011;4736;52.508;13.422;2023-02-18T13:01:45;5.97;;;5.67;;
9392;SDS011;4736;52.508;13.422;2023-02-18T13:04:57;5.20;;;5.07;;
9392;SDS011;4736;52.508;13.422;2023-02-18T13:08:10;5.33;;;5.03;;
9392;SDS011;4736;52.508;13.422;2023-02-18T13:12:22;5.40;;;5.10;;
9392;SDS011;4736;52.508;13.422;2023-02-18T13:15:44;5.27;;;5.07;;
9392;SDS011;4736;52.508;13.422;2023-02-18T13:18:57;5.10;;;4.90;;
9392;SDS011;4736;52.508;13.422;2023-02-18T13:22:04;5.20;;;4.90;;
9392;SDS011;4736;52.508;13.422;2023-02-18T13:25:12;4.87;;;4.57;;
9392;SDS011;4736;52.508;13.422;2023-02-18T13:28:45;4.77;;;4.57;;
9392;SDS011;4736;52.508;13.422;2023-02-18T13:31:59;4.50;;;4.30;;
9392;SDS011;4736;52.508;13.422;2023-02-18T13:35:15;4.40;;;4.30;;
9392;SDS011;4736;52.508;13.422;2023-02-18T13:38:30;3.77;;;3.67;;
9392;SDS011;4736;52.508;13.422;2023-02-18T13:42:09;3.80;;;3.80;;
9392;SDS011;4736;52.508;13.422;2023-02-18T13:45:24;4.10;;;4.00;;
9392;SDS011;4736;52.508;13.422;2023-02-18T13:48:32;3.50;;;3.40;;
9392;SDS011;4736;52.508;13.422;2023-02-18T13:51:37;3.33;;;3.33;;
9392;SDS011;4736;52.508;13.422;2023-02-18T13:54:45;3.10;;;3.00;;
9392;SDS011;4736;52.508;13.422;2023-02-18T13:57:52;3.27;;;3.17;;
9392;SDS011;4736;52.508;13.422;2023-02-18T14:00:59;2.87;;;2.87;;
9392;SDS011;4736;52.508;13.422;2023-02-18T14:07:50;3.10;;;3.10;;
9392;SDS011;4736;52.508;13.422;2023-02-18T14:11:23;3.57;;;3.50;;
9392;SDS011;4736;52.508;13.422;2023-02-18T14:14:42;3.50;;;3.50;;
9392;SDS011;4736;52.508;13.422;2023-02-18T14:17:46;3.50;;;3.40;;
9392;SDS011;4736;52.508;13.422;2023-02-18T14:20:51;3.23;;;3.23;;
9392;SDS011;4736;52.508;13.422;2023-02-18T14:24:08;2.83;;;2.83;;
9392;SDS011;4736;52.508;13.422;2023-02-18T14:27:13;3.03;;;2.97;;
9392;SDS011;4736;52.508;13.422;2023-02-18T14:30:18;3.10;;;3.00;;
9392;SDS011;4736;52.508;13.422;2023-02-18T14:33:28;3.00;;;2.90;;
9392;SDS011;4736;52.508;13.422;2023-02-18T14:36:35;3.17;;;3.00;;
9392;SDS011;4736;52.508;13.422;2023-02-18T14:39:50;3.00;;;3.00;;
9392;SDS011;4736;52.508;13.422;2023-02-18T14:43:06;3.07;;;3.07;;
9392;SDS011;4736;52.508;13.422;2023-02-18T14:46:19;2.97;;;2.87;;
9392;SDS011;4736;52.508;13.422;2023-02-18T14:49:36;3.00;;;3.00;;
9392;SDS011;4736;52.508;13.422;2023-02-18T14:52:44;2.70;;;2.60;;
9392;SDS011;4736;52.508;13.422;2023-02-18T14:55:50;2.77;;;2.73;;
9392;SDS011;4736;52.508;13.422;2023-02-18T14:58:59;2.90;;;2.90;;
9392;SDS011;4736;52.508;13.422;2023-02-18T15:02:10;3.17;;;3.17;;
9392;SDS011;4736;52.508;13.422;2023-02-18T15:05:21;2.80;;;2.63;;
9392;SDS011;4736;52.508;13.422;2023-02-18T15:08:26;2.83;;;2.83;;
9392;SDS011;4736;52.508;13.422;2023-02-18T15:11:41;2.93;;;2.93;;
9392;SDS011;4736;52.508;13.422;2023-02-18T15:14:48;3.10;;;3.10;;
9392;SDS011;4736;52.508;13.422;2023-02-18T15:17:53;3.03;;;3.03;;
9392;SDS011;4736;52.508;13.422;2023-02-18T15:20:59;2.83;;;2.80;;
9392;SDS011;4736;52.508;13.422;2023-02-18T15:24:07;3.20;;;3.10;;
9392;SDS011;4736;52.508;13.422;2023-02-18T15:27:11;2.93;;;2.83;;
9392;SDS011;4736;52.508;13.422;2023-02-18T15:30:18;2.57;;;2.57;;
9392;SDS011;4736;52.508;13.422;2023-02-18T15:33:23;2.37;;;2.37;;
9392;SDS011;4736;52.508;13.422;2023-02-18T15:36:26;2.73;;;2.70;;
9392;SDS011;4736;52.508;13.422;2023-02-18T15:39:30;2.67;;;2.67;;
9392;SDS011;4736;52.508;13.422;2023-02-18T15:42:35;2.80;;;2.70;;
9392;SDS011;4736;52.508;13.422;2023-02-18T15:45:39;2.70;;;2.70;;
9392;SDS011;4736;52.508;13.422;2023-02-18T15:48:45;2.37;;;2.37;;
9392;SDS011;4736;52.508;13.422;2023-02-18T15:51:53;2.30;;;2.30;;
9392;SDS011;4736;52.508;13.422;2023-02-18T15:55:01;2.33;;;2.33;;
9392;SDS011;4736;52.508;13.422;2023-02-18T15:58:12;2.40;;;2.40;;
9392;SDS011;4736;52.508;13.422;2023-02-18T16:01:25;2.60;;;2.50;;
9392;SDS011;4736;52.508;13.422;2023-02-18T16:04:31;2.27;;;2.27;;
9392;SDS011;4736;52.508;13.422;2023-02-18T16:07:37;2.20;;;2.20;;
9392;SDS011;4736;52.508;13.422;2023-02-18T16:10:54;2.43;;;2.40;;
9392;SDS011;4736;52.508;13.422;2023-02-18T16:14:03;2.40;;;2.40;;
9392;SDS011;4736;52.508;13.422;2023-02-18T16:17:08;2.20;;;2.20;;
9392;SDS011;4736;52.508;13.422;2023-02-18T16:20:21;2.30;;;2.30;;
9392;SDS011;4736;52.508;13.422;2023-02-18T16:23:35;2.33;;;2.33;;
9392;SDS011;4736;52.508;13.422;2023-02-18T16:26:45;2.70;;;2.70;;
9392;SDS011;4736;52.508;13.422;2023-02-18T16:29:49;2.63;;;2.40;;
9392;SDS011;4736;52.508;13.422;2023-02-18T16:32:54;2.30;;;2.30;;
9392;SDS011;4736;52.508;13.422;2023-02-18T16:36:00;2.30;;;2.30;;
9392;SDS011;4736;52.508;13.422;2023-02-18T16:39:04;2.50;;;2.40;;
9392;SDS011;4736;52.508;13.422;2023-02-18T16:42:09;2.40;;;2.40;;
9392;SDS011;4736;52.508;13.422;2023-02-18T16:45:13;2.23;;;2.23;;
9392;SDS011;4736;52.508;13.422;2023-02-18T16:48:16;2.40;;;2.40;;
9392;SDS011;4736;52.508;13.422;2023-02-18T16:51:23;2.70;;;2.70;;
9392;SDS011;4736;52.508;13.422;2023-02-18T16:54:34;2.83;;;2.83;;
9392;SDS011;4736;52.508;13.422;2023-02-18T16:57:38;2.80;;;2.80;;
9392;SDS011;4736;52.508;13.422;2023-02-18T17:00:41;2.80;;;2.80;;
9392;SDS011;4736;52.508;13.422;2023-02-18T17:03:45;3.37;;;3.27;;
9392;SDS011;4736;52.508;13.422;2023-02-18T17:06:49;3.20;;;3.00;;
9392;SDS011;4736;52.508;13.422;2023-02-18T17:09:53;2.93;;;2.93;;
9392;SDS011;4736;52.508;13.422;2023-02-18T17:12:57;3.40;;;3.30;;
9392;SDS011;4736;52.508;13.422;2023-02-18T17:16:00;3.40;;;3.30;;
9392;SDS011;4736;52.508;13.422;2023-02-18T17:19:03;3.00;;;2.90;;
9392;SDS011;4736;52.508;13.422;2023-02-18T17:22:08;3.10;;;3.10;;
9392;SDS011;4736;52.508;13.422;2023-02-18T17:25:16;3.07;;;3.07;;
9392;SDS011;4736;52.508;13.422;2023-02-18T17:28:23;3.20;;;3.20;;
9392;SDS011;4736;52.508;13.422;2023-02-18T17:31:27;3.30;;;3.27;;
9392;SDS011;4736;52.508;13.422;2023-02-18T17:34:32;3.10;;;3.10;;
9392;SDS011;4736;52.508;13.422;2023-02-18T17:37:38;3.10;;;3.00;;
9392;SDS011;4736;52.508;13.422;2023-02-18T17:40:41;3.00;;;3.00;;
9392;SDS011;4736;52.508;13.422;2023-02-18T17:43:59;3.20;;;3.20;;
9392;SDS011;4736;52.508;13.422;2023-02-18T17:47:02;3.73;;;3.63;;
9392;SDS011;4736;52.508;13.422;2023-02-18T17:50:05;3.00;;;3.00;;
9392;SDS011;4736;52.508;13.422;2023-02-18T17:53:09;3.10;;;3.10;;
9392;SDS011;4736;52.508;13.422;2023-02-18T17:56:12;2.93;;;2.90;;
9392;SDS011;4736;52.508;13.422;2023-02-18T17:59:17;3.20;;;3.20;;
9392;SDS011;4736;52.508;13.422;2023-02-18T18:02:24;3.27;;;3.27;;
9392;SDS011;4736;52.508;13.422;2023-02-18T18:05:29;3.50;;;3.50;;
9392;SDS011;4736;52.508;13.422;2023-02-18T18:08:33;3.83;;;3.70;;
9392;SDS011;4736;52.508;13.422;2023-02-18T18:11:37;3.27;;;3.20;;
9392;SDS011;4736;52.508;13.422;2023-02-18T18:14:41;3.17;;;3.17;;
9392;SDS011;4736;52.508;13.422;2023-02-18T18:17:45;3.00;;;3.00;;
9392;SDS011;4736;52.508;13.422;2023-02-18T18:20:49;3.10;;;3.10;;
9392;SDS011;4736;52.508;13.422;2023-02-18T18:24:00;3.13;;;3.03;;
9392;SDS011;4736;52.508;13.422;2023-02-18T18:27:04;3.17;;;3.17;;
9392;SDS011;4736;52.508;13.422;2023-02-18T18:30:22;3.33;;;3.23;;
9392;SDS011;4736;52.508;13.422;2023-02-18T18:33:28;3.40;;;3.10;;
9392;SDS011;4736;52.508;13.422;2023-02-18T18:36:33;3.20;;;3.20;;
9392;SDS011;4736;52.508;13.422;2023-02-18T18:39:36;3.33;;;3.33;;
9392;SDS011;4736;52.508;13.422;2023-02-18T18:42:40;3.50;;;3.40;;
9392;SDS011;4736;52.508;13.422;2023-02-18T18:45:45;3.13;;;3.10;;
9392;SDS011;4736;52.508;13.422;2023-02-18T18:48:49;3.20;;;3.10;;
9392;SDS011;4736;52.508;13.422;2023-02-18T18:51:52;3.60;;;3.60;;
9392;SDS011;4736;52.508;13.422;2023-02-18T18:54:57;3.27;;;3.27;;
9392;SDS011;4736;52.508;13.422;2023-02-18T18:58:00;2.83;;;2.83;;
9392;SDS011;4736;52.508;13.422;2023-02-18T19:01:06;3.20;;;3.20;;
9392;SDS011;4736;52.508;13.422;2023-02-18T19:04:15;3.10;;;3.10;;
9392;SDS011;4736;52.508;13.422;2023-02-18T19:07:19;3.87;;;3.77;;
9392;SDS011;4736;52.508;13.422;2023-02-18T19:10:22;3.60;;;3.50;;
9392;SDS011;4736;52.508;13.422;2023-02-18T19:13:27;3.70;;;3.60;;
9392;SDS011;4736;52.508;13.422;2023-02-18T19:16:33;3.50;;;3.50;;
9392;SDS011;4736;52.508;13.422;2023-02-18T19:19:37;3.30;;;3.30;;
9392;SDS011;4736;52.508;13.422;2023-02-18T19:22:40;3.50;;;3.50;;
9392;SDS011;4736;52.508;13.422;2023-02-18T19:25:43;3.23;;;3.23;;
9392;SDS011;4736;52.508;13.422;2023-02-18T19:28:47;3.53;;;3.53;;
9392;SDS011;4736;52.508;13.422;2023-02-18T19:31:52;3.53;;;3.40;;